メインページ
METAR-TAF:

METAR-TAF

空港 :

バンギ・ムポコ国際空港

バンギ, 中央アフリカ共和国

緯度: 04-24N, 経度: 018-31E, 海抜: 365m

現時点の気象観測

当レポートは49分前の12:00(UTC)に作成
南東の風 7kt
気温 28°C
湿度 66%
気圧 1008 hPa
視程: 4000m
高度1300ftの雲は散在している

METAR: FEFF 211200Z 14007KT 4000 TSSHRA SCT013 28/21 Q1008 BECMG 6000 TS

時間: 13:49 (12:49 UTC)

予報

当レポートは1時間49分前の11:00(UTC)に作成
予報は21日の 12時(UTC)から 22日の 18時(UTC)まで有効
南西の風 4kt
視程10km以上
高度2300ftの千切れ雲あり
高度3300ftの雲はほとんどない, 積乱雲.
激しい雷雨
21日の 12時(UTC)から 21日の 16時(UTC)まで一時的に
東/北東の風 10kt、最大25ktの突風を伴う
視程: 4000m
激しい雷雨, 雨
21日の 16時(UTC)から 21日の 18時(UTC)まで徐々に
南東の風 10kt
確率 30%
21日の 21時(UTC)から 22日の 01時(UTC)まで
高度1000ftの千切れ雲あり
高度3300ftの雲はほとんどない, 積乱雲.
激しい雷雨, 雨
22日の 02時(UTC)から 22日の 04時(UTC)まで徐々に
西/南西の風 5kt
高度800ftの千切れ雲あり

TAF: FEFF 211100Z 2112/2218 22004KT 9999 TS BKN023 FEW033CB TEMPO 2112/2116 06010G25KT 4000 TSRA BECMG 2116/2118 14010KT NSW PROB30 2121/2201 TSRA BKN010 FEW033CB BECMG 2202/2204 24005KT BKN008

4,000以上の空港の気象観測と天気予報(METAR報とTAF報)

利用可能な観測所は地図上に黄色い丸と赤い丸で示す。

丸の上にカーソルを重ねると観測所名を参照できる。

次にクリックすると気象観測と天気予報を参照できる。

マップの切り替え:黒色「×」印の緑ボタンをクリックして拡大、「-」印の緑ボタンをクリックして縮小、緑色の三角印をクリックして隣りの地図に切り替え


METAR-TAF: